createdAt,value
2023-01-07T05:03:17.141Z,8.30
2023-01-07T05:07:28.907Z,8.31
2023-01-07T05:11:41.461Z,8.33
2023-01-07T05:15:53.263Z,8.36
2023-01-07T05:20:07.636Z,8.33
2023-01-07T05:24:21.631Z,8.30
2023-01-07T05:28:33.577Z,8.30
2023-01-07T05:32:46.504Z,8.32
2023-01-07T05:36:58.277Z,8.33
2023-01-07T05:41:10.171Z,8.31
2023-01-07T05:45:21.901Z,8.29
2023-01-07T05:49:33.423Z,8.38
2023-01-07T05:53:44.934Z,8.39
2023-01-07T05:57:56.420Z,8.37
2023-01-07T06:02:07.916Z,8.37
2023-01-07T06:06:19.410Z,8.37
2023-01-07T06:10:31.068Z,8.38
2023-01-07T06:14:42.551Z,8.39
2023-01-07T06:18:54.047Z,8.38
2023-01-07T06:23:05.602Z,8.32
2023-01-07T06:27:17.202Z,8.34
2023-01-07T06:31:28.749Z,8.36
2023-01-07T06:35:41.988Z,8.36
2023-01-07T06:39:53.535Z,8.37
2023-01-07T06:44:05.086Z,8.31
2023-01-07T06:48:16.966Z,8.28
2023-01-07T06:52:28.473Z,8.21
2023-01-07T06:56:39.948Z,8.20
2023-01-07T07:00:51.475Z,8.17
2023-01-07T07:05:03.373Z,8.15
2023-01-07T07:09:14.858Z,8.18
2023-01-07T07:13:26.334Z,8.26
2023-01-07T07:17:37.862Z,8.27
2023-01-07T07:21:49.474Z,8.28
2023-01-07T07:26:00.960Z,8.34
2023-01-07T07:30:14.818Z,8.34
2023-01-07T07:34:26.336Z,8.35
2023-01-07T07:38:37.849Z,8.34
2023-01-07T07:43:11.949Z,8.43
2023-01-07T07:47:21.197Z,8.36
2023-01-07T07:51:32.941Z,8.39
2023-01-07T07:55:44.660Z,8.37
2023-01-07T07:59:56.122Z,8.37
2023-01-07T08:04:07.615Z,8.38
2023-01-07T08:08:19.090Z,8.39
2023-01-07T08:12:31.252Z,8.41
2023-01-07T08:16:42.731Z,8.41
2023-01-07T08:20:55.672Z,8.45
2023-01-07T08:25:07.401Z,8.51
2023-01-07T08:29:18.962Z,8.50
2023-01-07T08:33:31.415Z,8.55
2023-01-07T08:37:43.730Z,8.57
2023-01-07T08:41:55.331Z,8.59
2023-01-07T08:46:06.796Z,8.67
2023-01-07T08:50:20.052Z,8.70
2023-01-07T08:54:31.580Z,8.74
2023-01-07T08:58:43.108Z,8.77
2023-01-07T09:02:54.687Z,8.74
2023-01-07T09:07:06.265Z,8.73
2023-01-07T09:11:17.763Z,8.74
2023-01-07T09:15:29.320Z,8.77
2023-01-07T09:19:40.824Z,8.68
2023-01-07T09:23:52.313Z,8.69
2023-01-07T09:28:03.870Z,8.77
2023-01-07T09:32:15.340Z,8.71
2023-01-07T09:36:27.112Z,8.80
2023-01-07T09:40:41.175Z,8.77
2023-01-07T09:45:20.255Z,8.79
2023-01-07T09:49:32.978Z,8.80
2023-01-07T09:53:49.303Z,8.84
2023-01-07T09:58:00.956Z,8.87
2023-01-07T10:02:42.584Z,8.86
2023-01-07T10:07:07.790Z,8.93
2023-01-07T10:11:55.554Z,8.93
2023-01-07T10:16:25.790Z,8.93
2023-01-07T10:21:02.071Z,8.93
2023-01-07T10:25:21.959Z,8.98
2023-01-07T10:29:48.994Z,8.96
2023-01-07T10:34:00.793Z,8.98
2023-01-07T10:38:18.513Z,9.05
2023-01-07T10:42:41.878Z,9.07
2023-01-07T10:47:31.946Z,9.09
2023-01-07T10:52:03.287Z,9.14
2023-01-07T10:56:23.725Z,9.08
2023-01-07T11:00:35.237Z,9.06
2023-01-07T11:04:46.802Z,9.06
2023-01-07T11:08:58.289Z,9.07
2023-01-07T11:13:35.235Z,9.14
2023-01-07T11:17:55.425Z,9.16
2023-01-07T11:22:28.538Z,9.11
2023-01-07T11:26:40.103Z,9.12
2023-01-07T11:30:59.709Z,9.18
2023-01-07T11:35:23.255Z,9.25
2023-01-07T11:39:36.215Z,9.32
2023-01-07T11:43:50.022Z,9.40
2023-01-07T11:48:04.526Z,9.54
2023-01-07T11:52:20.188Z,9.58
2023-01-07T11:56:34.229Z,9.62
2023-01-07T12:00:45.757Z,9.64
2023-01-07T12:05:23.905Z,9.68
2023-01-07T12:09:40.792Z,9.74
2023-01-07T12:13:53.087Z,9.75
2023-01-07T12:18:07.550Z,9.80
2023-01-07T12:22:21.932Z,9.90
2023-01-07T12:26:51.917Z,9.94
2023-01-07T12:31:13.071Z,10.00
2023-01-07T12:35:30.136Z,10.06
2023-01-07T12:39:45.118Z,10.14
2023-01-07T12:44:02.786Z,10.10
2023-01-07T12:48:40.640Z,10.10
2023-01-07T12:53:33.880Z,10.11
2023-01-07T12:58:10.292Z,10.13
2023-01-07T13:02:48.055Z,10.08
2023-01-07T13:07:16.423Z,10.13
2023-01-07T13:11:53.070Z,10.43
2023-01-07T13:16:11.565Z,10.59
2023-01-07T13:20:39.136Z,10.69
2023-01-07T13:25:12.222Z,10.72
2023-01-07T13:29:26.829Z,10.76
2023-01-07T13:33:57.236Z,10.81
2023-01-07T13:38:11.685Z,10.66
2023-01-07T13:42:46.683Z,10.64
2023-01-07T13:46:58.671Z,10.58
2023-01-07T13:51:10.469Z,10.65
2023-01-07T13:55:30.200Z,10.71
2023-01-07T13:59:48.562Z,10.80
2023-01-07T14:04:09.094Z,10.81
2023-01-07T14:08:28.328Z,10.86
2023-01-07T14:13:05.487Z,10.85
2023-01-07T14:17:36.374Z,10.91
2023-01-07T14:22:10.536Z,10.93
2023-01-07T14:26:31.053Z,10.94
2023-01-07T14:30:47.832Z,10.86
2023-01-07T14:35:21.920Z,10.82
2023-01-07T14:39:44.205Z,10.79
2023-01-07T14:44:04.911Z,10.72
2023-01-07T14:48:16.323Z,11.15
2023-01-07T14:52:49.729Z,10.93
2023-01-07T14:57:01.171Z,10.88
2023-01-07T15:01:32.657Z,10.71
2023-01-07T15:06:23.667Z,10.57
2023-01-07T15:10:53.767Z,10.34
2023-01-07T15:15:32.660Z,10.14
2023-01-07T15:19:44.572Z,10.10
2023-01-07T15:24:35.422Z,10.06
2023-01-07T15:29:05.364Z,10.01
2023-01-07T15:33:32.273Z,9.94
2023-01-07T15:37:45.997Z,9.82
2023-01-07T15:41:58.167Z,9.74
2023-01-07T15:46:13.416Z,9.74
2023-01-07T15:50:30.225Z,9.54
2023-01-07T15:54:41.777Z,9.48
2023-01-07T15:58:53.350Z,9.44
2023-01-07T16:03:05.539Z,9.39
2023-01-07T16:07:32.896Z,9.40
2023-01-07T16:11:44.442Z,9.36
2023-01-07T16:15:58.196Z,9.32
2023-01-07T16:20:11.573Z,9.28
2023-01-07T16:24:23.115Z,9.23
2023-01-07T16:28:51.159Z,9.21
2023-01-07T16:33:03.877Z,9.17
2023-01-07T16:37:16.259Z,9.11
2023-01-07T16:41:29.635Z,9.05
2023-01-07T16:45:41.914Z,9.09
2023-01-07T16:49:59.543Z,8.99
2023-01-07T16:54:26.353Z,8.95
2023-01-07T16:58:51.256Z,8.90
2023-01-07T17:03:02.917Z,8.94
2023-01-07T17:07:28.667Z,8.91
2023-01-07T17:11:40.328Z,8.89
2023-01-07T17:15:52.111Z,8.89
2023-01-07T17:20:12.685Z,8.84
2023-01-07T17:24:30.143Z,8.75
2023-01-07T17:28:56.576Z,8.74
2023-01-07T17:33:15.303Z,8.67
2023-01-07T17:37:26.904Z,8.67
2023-01-07T17:41:57.156Z,8.61
2023-01-07T17:46:12.802Z,8.56
2023-01-07T17:50:28.158Z,8.51
2023-01-07T17:54:40.664Z,8.48
2023-01-07T17:58:55.760Z,8.47
2023-01-07T18:03:07.444Z,8.50
2023-01-07T18:07:18.961Z,8.57
2023-01-07T18:11:53.613Z,8.56
2023-01-07T18:16:29.799Z,8.60
2023-01-07T18:20:42.111Z,8.72
2023-01-07T18:24:54.044Z,8.70
2023-01-07T18:29:05.658Z,8.84
2023-01-07T18:33:17.691Z,8.84
2023-01-07T18:37:29.291Z,8.95
2023-01-07T18:41:41.895Z,8.97
2023-01-07T18:45:53.521Z,8.98
2023-01-07T18:50:05.848Z,8.99
2023-01-07T18:54:17.563Z,8.96
2023-01-07T18:58:29.123Z,8.88
2023-01-07T19:02:40.692Z,8.87
2023-01-07T19:06:52.642Z,8.94
2023-01-07T19:11:13.333Z,8.96
2023-01-07T19:15:24.860Z,8.92
2023-01-07T19:19:47.481Z,8.93
2023-01-07T19:24:03.580Z,9.04
2023-01-07T19:28:15.741Z,9.00
2023-01-07T19:32:31.376Z,8.97
2023-01-07T19:36:46.634Z,9.03
2023-01-07T19:40:58.180Z,9.08
2023-01-07T19:45:10.054Z,9.19
2023-01-07T19:49:21.727Z,9.21
2023-01-07T19:53:35.697Z,9.25
2023-01-07T19:57:48.165Z,9.25
2023-01-07T20:01:59.866Z,9.30
2023-01-07T20:06:14.144Z,9.35
2023-01-07T20:10:25.724Z,9.37
2023-01-07T20:14:37.364Z,9.32
2023-01-07T20:18:53.623Z,9.42
2023-01-07T20:23:05.117Z,9.36
2023-01-07T20:27:16.591Z,9.36
2023-01-07T20:31:29.883Z,9.37
2023-01-07T20:35:43.099Z,9.41
2023-01-07T20:39:55.111Z,9.50
2023-01-07T20:44:08.689Z,9.49
2023-01-07T20:48:20.322Z,9.51
2023-01-07T20:52:31.871Z,9.51
2023-01-07T20:56:45.203Z,9.60
2023-01-07T21:00:57.075Z,9.60
2023-01-07T21:05:09.343Z,9.71
2023-01-07T21:09:20.887Z,9.62
2023-01-07T21:13:32.404Z,9.67
2023-01-07T21:17:43.956Z,9.68
2023-01-07T21:21:55.457Z,9.54
2023-01-07T21:26:08.379Z,9.58
2023-01-07T21:30:20.084Z,9.52
2023-01-07T21:34:31.664Z,9.46
2023-01-07T21:38:44.251Z,9.35
2023-01-07T21:42:55.732Z,9.38
2023-01-07T21:47:07.235Z,9.21
2023-01-07T21:51:22.432Z,9.22
2023-01-07T21:55:37.648Z,9.16
2023-01-07T21:59:49.228Z,9.08
2023-01-07T22:04:01.260Z,8.99
2023-01-07T22:08:12.778Z,9.01
2023-01-07T22:12:25.626Z,8.94
2023-01-07T22:16:37.151Z,8.90
2023-01-07T22:20:55.817Z,8.82
2023-01-07T22:25:07.776Z,8.77
2023-01-07T22:29:19.273Z,8.75
